createdAt,value
2023-12-29T00:02:53.512Z,15.23
2023-12-29T00:07:02.773Z,14.10
2023-12-29T00:15:10.567Z,21.88
2023-12-29T00:19:13.930Z,13.57
2023-12-29T00:23:18.522Z,14.80
2023-12-29T00:27:21.475Z,23.50
2023-12-29T00:31:24.568Z,18.38
2023-12-29T00:35:28.183Z,16.40
2023-12-29T00:39:39.897Z,14.82
2023-12-29T00:43:43.387Z,14.10
2023-12-29T00:47:46.488Z,17.17
2023-12-29T00:51:50.062Z,22.40
2023-12-29T00:55:54.635Z,16.92
2023-12-29T00:59:57.695Z,13.77
2023-12-29T01:04:00.826Z,15.88
2023-12-29T01:08:03.964Z,14.45
2023-12-29T01:12:09.044Z,17.55
2023-12-29T01:16:12.254Z,16.55
2023-12-29T01:20:15.798Z,17.35
2023-12-29T01:24:23.933Z,16.30
2023-12-29T01:28:31.132Z,19.90
2023-12-29T01:32:34.265Z,16.17
2023-12-29T01:36:37.318Z,15.70
2023-12-29T01:40:46.975Z,16.58
2023-12-29T01:44:55.101Z,17.23
2023-12-29T01:48:59.922Z,17.20
2023-12-29T01:53:05.951Z,18.30
2023-12-29T01:57:10.180Z,15.65
2023-12-29T02:01:16.394Z,14.48
2023-12-29T02:05:22.892Z,14.38
2023-12-29T02:09:26.016Z,15.50
2023-12-29T02:13:29.100Z,15.38
2023-12-29T02:17:40.232Z,14.45
2023-12-29T02:21:43.487Z,12.60
2023-12-29T02:25:48.324Z,12.88
2023-12-29T02:30:04.616Z,11.52
2023-12-29T02:34:12.620Z,13.40
2023-12-29T02:38:15.869Z,13.43
2023-12-29T02:42:52.794Z,13.20
2023-12-29T02:47:18.085Z,45.63
2023-12-29T02:51:23.822Z,11.18
2023-12-29T02:55:26.862Z,12.55
2023-12-29T02:59:31.378Z,11.80
2023-12-29T03:03:34.714Z,11.65
2023-12-29T03:07:37.826Z,12.20
2023-12-29T03:11:40.841Z,10.68
2023-12-29T03:15:45.228Z,11.02
2023-12-29T03:19:48.468Z,11.02
2023-12-29T03:23:51.642Z,11.00
2023-12-29T03:27:55.068Z,11.20
2023-12-29T03:32:00.272Z,12.05
2023-12-29T03:36:03.308Z,11.30
2023-12-29T03:40:07.596Z,12.18
2023-12-29T03:44:10.657Z,13.02
2023-12-29T03:48:15.148Z,12.07
2023-12-29T03:52:18.394Z,11.57
2023-12-29T03:56:21.698Z,10.85
2023-12-29T04:00:24.723Z,9.82
2023-12-29T04:04:29.327Z,10.02
2023-12-29T04:08:32.503Z,11.82
2023-12-29T04:12:35.597Z,10.65
2023-12-29T04:16:39.932Z,10.48
2023-12-29T04:20:44.370Z,9.60
2023-12-29T04:24:48.769Z,11.65
2023-12-29T04:28:51.910Z,10.45
2023-12-29T04:32:55.124Z,13.15
2023-12-29T04:37:00.108Z,9.85
2023-12-29T04:41:03.362Z,10.07
2023-12-29T04:45:07.331Z,12.52
2023-12-29T04:49:10.629Z,11.85
2023-12-29T04:53:15.084Z,10.63
2023-12-29T04:57:18.282Z,11.75
2023-12-29T05:01:21.423Z,10.00
2023-12-29T05:05:24.608Z,10.95
2023-12-29T05:09:29.109Z,11.18
2023-12-29T05:13:32.168Z,12.05
2023-12-29T05:17:35.237Z,12.55
2023-12-29T05:21:38.284Z,9.68
2023-12-29T05:25:43.195Z,8.82
2023-12-29T05:29:46.381Z,9.60
2023-12-29T05:33:49.549Z,8.23
2023-12-29T05:37:52.875Z,6.97
2023-12-29T05:41:57.415Z,8.15
2023-12-29T05:46:00.742Z,6.97
2023-12-29T05:50:04.073Z,7.60
2023-12-29T05:54:07.487Z,12.35
2023-12-29T05:58:12.112Z,13.40
2023-12-29T06:02:15.487Z,9.80
2023-12-29T06:06:18.915Z,13.90
2023-12-29T06:10:22.021Z,9.80
2023-12-29T06:14:26.589Z,16.73
2023-12-29T06:18:30.082Z,13.20
2023-12-29T06:22:33.361Z,9.02
2023-12-29T06:26:36.523Z,11.30
2023-12-29T06:30:41.063Z,6.53
2023-12-29T06:34:44.506Z,8.40
2023-12-29T06:38:49.966Z,10.15
2023-12-29T06:42:53.128Z,8.52
2023-12-29T06:46:57.681Z,7.90
2023-12-29T06:51:02.141Z,6.90
2023-12-29T06:55:05.865Z,4.57
2023-12-29T06:59:09.426Z,5.35
2023-12-29T07:03:16.717Z,8.32
2023-12-29T07:07:21.882Z,5.63
2023-12-29T07:11:25.047Z,5.18
2023-12-29T07:15:30.060Z,5.55
2023-12-29T07:19:38.561Z,6.03
2023-12-29T07:23:43.136Z,6.40
2023-12-29T07:27:46.404Z,6.15
2023-12-29T07:31:50.261Z,5.90
2023-12-29T07:35:55.014Z,4.97
2023-12-29T07:39:58.257Z,5.30
2023-12-29T07:44:01.526Z,6.20
2023-12-29T07:48:08.783Z,6.93
2023-12-29T07:52:15.401Z,7.07
2023-12-29T07:56:18.611Z,3.90
2023-12-29T08:00:23.256Z,5.30
2023-12-29T08:04:27.638Z,6.85
2023-12-29T08:08:32.289Z,5.20
2023-12-29T08:12:35.782Z,4.20
2023-12-29T08:16:40.527Z,4.30
2023-12-29T08:20:43.618Z,5.40
2023-12-29T08:24:48.195Z,6.80
2023-12-29T08:28:51.356Z,7.00
2023-12-29T08:32:54.387Z,5.35
2023-12-29T08:36:57.542Z,4.25
2023-12-29T08:41:02.125Z,3.80
2023-12-29T08:45:07.171Z,6.15
2023-12-29T08:49:10.660Z,6.57
2023-12-29T08:53:14.580Z,6.53
2023-12-29T08:57:19.012Z,17.65
2023-12-29T09:01:22.277Z,16.27
2023-12-29T09:05:27.321Z,22.23
2023-12-29T09:09:30.394Z,27.42
2023-12-29T09:13:34.941Z,22.05
2023-12-29T09:17:38.146Z,17.10
2023-12-29T09:21:43.298Z,25.35
2023-12-29T09:25:46.493Z,22.75
2023-12-29T09:29:52.193Z,10.25
2023-12-29T09:33:55.302Z,7.70
2023-12-29T09:37:58.383Z,6.03
2023-12-29T09:42:02.808Z,11.13
2023-12-29T09:46:09.605Z,6.57
2023-12-29T09:50:14.304Z,5.03
2023-12-29T09:54:18.002Z,8.57
2023-12-29T09:58:24.461Z,7.13
2023-12-29T10:02:28.981Z,6.13
2023-12-29T10:06:38.523Z,3.20
2023-12-29T10:10:43.420Z,4.97
2023-12-29T10:14:50.836Z,3.67
2023-12-29T10:19:05.732Z,4.00
2023-12-29T10:23:14.265Z,4.90
2023-12-29T10:27:17.550Z,3.78
2023-12-29T10:31:20.841Z,4.38
2023-12-29T10:35:27.811Z,3.40
2023-12-29T10:39:31.950Z,4.38
2023-12-29T10:43:34.847Z,3.25
2023-12-29T10:47:39.665Z,3.38
2023-12-29T10:51:44.184Z,5.28
2023-12-29T10:55:47.357Z,3.67
2023-12-29T10:59:57.248Z,4.78
2023-12-29T11:08:18.023Z,3.08
2023-12-29T11:12:21.226Z,3.70
2023-12-29T11:16:25.247Z,4.15
2023-12-29T11:20:28.770Z,6.63
2023-12-29T11:24:38.493Z,2.75
2023-12-29T11:28:45.246Z,2.92
2023-12-29T11:32:53.747Z,3.08
2023-12-29T11:37:08.028Z,2.58
2023-12-29T11:41:15.894Z,2.58
2023-12-29T11:45:31.107Z,1.73
2023-12-29T11:50:03.547Z,2.83
2023-12-29T11:54:07.452Z,2.03
2023-12-29T12:02:38.694Z,2.33
2023-12-29T12:06:42.040Z,3.67
2023-12-29T12:10:45.230Z,3.92
2023-12-29T12:14:50.651Z,4.13
2023-12-29T12:18:55.396Z,4.40
2023-12-29T12:23:00.472Z,3.00
2023-12-29T12:27:03.818Z,2.65
2023-12-29T12:31:08.127Z,4.07
2023-12-29T12:35:20.275Z,2.65
2023-12-29T12:39:24.663Z,2.05
2023-12-29T12:43:30.284Z,3.58
2023-12-29T12:47:38.077Z,7.22
2023-12-29T12:51:42.860Z,2.40
2023-12-29T12:55:46.040Z,4.20
2023-12-29T12:59:51.424Z,7.18
2023-12-29T13:03:55.316Z,3.65
2023-12-29T13:07:59.917Z,7.80
2023-12-29T13:12:13.724Z,6.93
2023-12-29T13:16:16.970Z,4.22
2023-12-29T13:20:20.074Z,7.65
2023-12-29T13:24:24.887Z,4.97
2023-12-29T13:28:29.245Z,4.78
2023-12-29T13:32:36.141Z,2.25
2023-12-29T13:36:44.880Z,2.50
2023-12-29T13:40:58.324Z,5.10
2023-12-29T13:45:03.718Z,2.85
2023-12-29T13:49:08.576Z,3.58
2023-12-29T13:53:19.767Z,4.03
2023-12-29T13:57:33.671Z,3.22
2023-12-29T14:01:41.095Z,5.28
2023-12-29T14:05:51.181Z,4.68
2023-12-29T14:09:56.419Z,4.97
2023-12-29T14:14:00.997Z,2.70
2023-12-29T14:18:06.644Z,4.45
2023-12-29T14:22:09.759Z,5.78
2023-12-29T14:26:12.837Z,5.38
2023-12-29T14:30:23.075Z,4.53
2023-12-29T14:34:26.308Z,5.80
2023-12-29T14:38:29.499Z,6.70
2023-12-29T14:42:32.594Z,7.03
2023-12-29T14:46:38.333Z,5.95
2023-12-29T14:50:47.592Z,5.00
2023-12-29T14:54:50.711Z,7.38
2023-12-29T14:58:53.926Z,19.45
2023-12-29T15:02:58.426Z,8.00
2023-12-29T15:07:01.674Z,8.90
2023-12-29T15:11:06.026Z,8.23
2023-12-29T15:15:09.572Z,9.93
2023-12-29T15:19:14.703Z,6.63
2023-12-29T15:23:17.704Z,5.68
2023-12-29T15:27:20.621Z,8.35
2023-12-29T15:31:25.291Z,5.90
2023-12-29T15:35:29.711Z,5.75
2023-12-29T15:39:32.634Z,3.28
2023-12-29T15:43:41.692Z,3.20
2023-12-29T15:47:47.437Z,3.20
2023-12-29T15:51:51.814Z,2.95
2023-12-29T15:55:54.837Z,2.42
2023-12-29T15:59:57.902Z,6.00
2023-12-29T16:04:01.088Z,2.90
2023-12-29T16:08:06.071Z,3.63
2023-12-29T16:22:24.792Z,2.83
2023-12-29T20:21:34.717Z,9.25
2023-12-29T20:25:40.231Z,5.30
2023-12-29T20:29:43.438Z,2.78
2023-12-29T20:33:46.846Z,6.18
2023-12-29T20:37:51.754Z,4.18
2023-12-29T20:41:55.087Z,2.88
2023-12-29T20:45:58.311Z,1.88
2023-12-29T20:50:01.616Z,17.98
2023-12-29T20:54:08.414Z,3.58
2023-12-29T20:58:11.673Z,6.40
2023-12-29T21:02:15.557Z,5.57
2023-12-29T21:06:21.600Z,6.45
2023-12-29T21:10:30.642Z,4.50
2023-12-29T21:14:36.356Z,3.20
2023-12-29T21:18:39.646Z,2.55
2023-12-29T21:22:44.213Z,3.72
2023-12-29T21:26:48.924Z,3.28
2023-12-29T21:30:52.312Z,3.15
2023-12-29T21:34:55.673Z,3.22
2023-12-29T21:38:59.955Z,1.95
2023-12-29T21:43:04.794Z,2.60
2023-12-29T21:47:08.195Z,4.68
2023-12-29T21:51:13.261Z,3.05
2023-12-29T21:55:16.533Z,3.25
2023-12-29T21:59:21.179Z,3.25
2023-12-29T22:03:24.414Z,43.88
2023-12-29T22:07:27.651Z,9.05
2023-12-29T22:11:30.968Z,19.00
2023-12-29T22:15:35.630Z,3.03
2023-12-29T22:19:40.546Z,3.13
2023-12-29T22:23:44.441Z,3.80
2023-12-29T22:27:47.760Z,3.40
2023-12-29T22:31:54.518Z,4.97
2023-12-29T22:35:57.912Z,4.78
2023-12-29T22:40:01.307Z,2.80
2023-12-29T22:44:04.608Z,3.67
2023-12-29T22:48:09.572Z,2.97
2023-12-29T22:52:12.920Z,2.33
2023-12-29T22:56:16.113Z,4.18
2023-12-29T23:00:22.067Z,2.50
2023-12-29T23:04:26.962Z,8.18
2023-12-29T23:08:30.112Z,6.28
2023-12-29T23:12:33.442Z,3.53
2023-12-29T23:16:38.377Z,2.53
2023-12-29T23:20:43.161Z,2.38
2023-12-29T23:25:05.461Z,3.50
2023-12-29T23:35:25.212Z,4.45
2023-12-29T23:51:31.069Z,6.60
2023-12-29T23:55:34.419Z,3.30
2023-12-29T23:59:37.786Z,1.27
